sensor_id;sensor_type;location;lat;lon;timestamp;P1;durP1;ratioP1;P2;durP2;ratioP2
27305;SDS011;14792;50.886;6.468;2023-07-31T00:02:56;12.45;;;4.87;;
27305;SDS011;14792;50.886;6.468;2023-07-31T00:05:57;12.05;;;4.83;;
27305;SDS011;14792;50.886;6.468;2023-07-31T00:08:59;14.18;;;4.62;;
27305;SDS011;14792;50.886;6.468;2023-07-31T00:12:01;14.30;;;4.65;;
27305;SDS011;14792;50.886;6.468;2023-07-31T00:15:03;8.58;;;3.92;;
27305;SDS011;14792;50.886;6.468;2023-07-31T00:18:04;11.03;;;4.30;;
27305;SDS011;14792;50.886;6.468;2023-07-31T00:21:06;7.85;;;3.95;;
27305;SDS011;14792;50.886;6.468;2023-07-31T00:24:07;11.65;;;3.50;;
27305;SDS011;14792;50.886;6.468;2023-07-31T00:27:13;15.18;;;4.10;;
27305;SDS011;14792;50.886;6.468;2023-07-31T00:30:14;9.13;;;3.75;;
27305;SDS011;14792;50.886;6.468;2023-07-31T00:33:16;12.37;;;3.98;;
27305;SDS011;14792;50.886;6.468;2023-07-31T00:36:17;8.60;;;4.03;;
27305;SDS011;14792;50.886;6.468;2023-07-31T00:39:19;13.60;;;3.58;;
27305;SDS011;14792;50.886;6.468;2023-07-31T00:42:20;11.83;;;4.75;;
27305;SDS011;14792;50.886;6.468;2023-07-31T00:45:22;10.13;;;3.72;;
27305;SDS011;14792;50.886;6.468;2023-07-31T00:48:24;10.43;;;3.90;;
27305;SDS011;14792;50.886;6.468;2023-07-31T00:51:25;10.40;;;3.80;;
27305;SDS011;14792;50.886;6.468;2023-07-31T00:54:27;11.43;;;4.08;;
27305;SDS011;14792;50.886;6.468;2023-07-31T00:57:28;10.28;;;3.83;;
27305;SDS011;14792;50.886;6.468;2023-07-31T01:00:30;12.47;;;4.00;;
27305;SDS011;14792;50.886;6.468;2023-07-31T01:03:32;14.98;;;4.40;;
27305;SDS011;14792;50.886;6.468;2023-07-31T01:06:36;8.88;;;4.17;;
27305;SDS011;14792;50.886;6.468;2023-07-31T01:12:55;9.08;;;4.20;;
27305;SDS011;14792;50.886;6.468;2023-07-31T01:15:56;13.70;;;4.22;;
27305;SDS011;14792;50.886;6.468;2023-07-31T01:18:58;12.45;;;4.12;;
27305;SDS011;14792;50.886;6.468;2023-07-31T01:22:21;9.45;;;4.03;;
27305;SDS011;14792;50.886;6.468;2023-07-31T01:29:03;9.38;;;3.80;;
27305;SDS011;14792;50.886;6.468;2023-07-31T01:32:12;7.80;;;3.80;;
27305;SDS011;14792;50.886;6.468;2023-07-31T01:35:13;11.18;;;4.03;;
27305;SDS011;14792;50.886;6.468;2023-07-31T01:38:15;10.82;;;3.92;;
27305;SDS011;14792;50.886;6.468;2023-07-31T01:41:20;9.78;;;3.83;;
27305;SDS011;14792;50.886;6.468;2023-07-31T01:44:21;8.88;;;4.03;;
27305;SDS011;14792;50.886;6.468;2023-07-31T01:47:23;7.45;;;4.33;;
27305;SDS011;14792;50.886;6.468;2023-07-31T01:50:24;12.05;;;3.90;;
27305;SDS011;14792;50.886;6.468;2023-07-31T01:53:26;13.25;;;4.55;;
27305;SDS011;14792;50.886;6.468;2023-07-31T01:56:28;10.45;;;4.47;;
27305;SDS011;14792;50.886;6.468;2023-07-31T01:59:29;10.55;;;4.00;;
27305;SDS011;14792;50.886;6.468;2023-07-31T02:02:31;13.08;;;4.60;;
27305;SDS011;14792;50.886;6.468;2023-07-31T02:05:32;12.68;;;4.42;;
27305;SDS011;14792;50.886;6.468;2023-07-31T02:08:34;13.78;;;4.12;;
27305;SDS011;14792;50.886;6.468;2023-07-31T02:11:35;10.53;;;4.58;;
27305;SDS011;14792;50.886;6.468;2023-07-31T02:14:37;9.05;;;3.90;;
27305;SDS011;14792;50.886;6.468;2023-07-31T02:17:43;11.63;;;5.33;;
27305;SDS011;14792;50.886;6.468;2023-07-31T02:20:48;16.17;;;6.47;;
27305;SDS011;14792;50.886;6.468;2023-07-31T02:23:46;15.48;;;7.00;;
27305;SDS011;14792;50.886;6.468;2023-07-31T02:26:47;12.25;;;5.83;;
27305;SDS011;14792;50.886;6.468;2023-07-31T02:29:49;11.00;;;4.67;;
27305;SDS011;14792;50.886;6.468;2023-07-31T02:32:51;15.20;;;5.10;;
27305;SDS011;14792;50.886;6.468;2023-07-31T02:35:52;13.03;;;5.03;;
27305;SDS011;14792;50.886;6.468;2023-07-31T02:38:54;12.73;;;4.95;;
27305;SDS011;14792;50.886;6.468;2023-07-31T02:41:55;11.83;;;4.72;;
27305;SDS011;14792;50.886;6.468;2023-07-31T02:44:57;9.33;;;4.40;;
27305;SDS011;14792;50.886;6.468;2023-07-31T02:47:59;11.80;;;4.28;;
27305;SDS011;14792;50.886;6.468;2023-07-31T02:51:00;13.00;;;4.17;;
27305;SDS011;14792;50.886;6.468;2023-07-31T02:54:02;10.60;;;4.53;;
27305;SDS011;14792;50.886;6.468;2023-07-31T02:57:03;15.75;;;4.67;;
27305;SDS011;14792;50.886;6.468;2023-07-31T03:00:05;13.15;;;5.15;;
27305;SDS011;14792;50.886;6.468;2023-07-31T03:03:07;14.78;;;4.60;;
27305;SDS011;14792;50.886;6.468;2023-07-31T03:06:11;11.70;;;4.65;;
27305;SDS011;14792;50.886;6.468;2023-07-31T03:09:13;10.08;;;4.80;;
27305;SDS011;14792;50.886;6.468;2023-07-31T03:12:15;10.00;;;4.78;;
27305;SDS011;14792;50.886;6.468;2023-07-31T03:15:16;11.65;;;4.28;;
27305;SDS011;14792;50.886;6.468;2023-07-31T03:18:18;14.38;;;4.80;;
27305;SDS011;14792;50.886;6.468;2023-07-31T03:21:19;16.60;;;5.03;;
27305;SDS011;14792;50.886;6.468;2023-07-31T03:24:21;13.18;;;4.85;;
27305;SDS011;14792;50.886;6.468;2023-07-31T03:27:23;15.25;;;6.12;;
27305;SDS011;14792;50.886;6.468;2023-07-31T03:30:24;12.07;;;5.08;;
27305;SDS011;14792;50.886;6.468;2023-07-31T03:33:26;13.85;;;5.10;;
27305;SDS011;14792;50.886;6.468;2023-07-31T03:36:27;12.43;;;5.42;;
27305;SDS011;14792;50.886;6.468;2023-07-31T03:39:29;14.60;;;5.42;;
27305;SDS011;14792;50.886;6.468;2023-07-31T03:42:31;10.98;;;4.87;;
27305;SDS011;14792;50.886;6.468;2023-07-31T03:45:32;11.70;;;4.97;;
27305;SDS011;14792;50.886;6.468;2023-07-31T03:48:34;11.28;;;4.90;;
27305;SDS011;14792;50.886;6.468;2023-07-31T03:51:35;11.50;;;4.72;;
27305;SDS011;14792;50.886;6.468;2023-07-31T03:54:37;13.60;;;4.90;;
27305;SDS011;14792;50.886;6.468;2023-07-31T03:57:41;8.18;;;4.58;;
27305;SDS011;14792;50.886;6.468;2023-07-31T04:00:43;9.70;;;4.50;;
27305;SDS011;14792;50.886;6.468;2023-07-31T04:03:45;15.93;;;5.20;;
27305;SDS011;14792;50.886;6.468;2023-07-31T04:06:46;9.80;;;4.85;;
27305;SDS011;14792;50.886;6.468;2023-07-31T04:09:48;10.15;;;4.67;;
27305;SDS011;14792;50.886;6.468;2023-07-31T04:12:50;12.13;;;4.62;;
27305;SDS011;14792;50.886;6.468;2023-07-31T04:15:51;10.50;;;4.40;;
27305;SDS011;14792;50.886;6.468;2023-07-31T04:18:56;7.78;;;4.08;;
27305;SDS011;14792;50.886;6.468;2023-07-31T04:21:57;10.32;;;4.17;;
27305;SDS011;14792;50.886;6.468;2023-07-31T04:24:59;9.83;;;4.58;;
27305;SDS011;14792;50.886;6.468;2023-07-31T04:28:01;9.68;;;4.83;;
27305;SDS011;14792;50.886;6.468;2023-07-31T04:31:02;7.72;;;4.42;;
27305;SDS011;14792;50.886;6.468;2023-07-31T04:34:04;8.95;;;4.37;;
27305;SDS011;14792;50.886;6.468;2023-07-31T04:37:05;9.90;;;4.00;;
27305;SDS011;14792;50.886;6.468;2023-07-31T04:40:07;8.55;;;4.05;;
27305;SDS011;14792;50.886;6.468;2023-07-31T04:43:12;7.12;;;4.00;;
27305;SDS011;14792;50.886;6.468;2023-07-31T04:46:14;9.35;;;4.22;;
27305;SDS011;14792;50.886;6.468;2023-07-31T04:49:15;10.85;;;4.00;;
27305;SDS011;14792;50.886;6.468;2023-07-31T04:52:17;6.78;;;3.70;;
27305;SDS011;14792;50.886;6.468;2023-07-31T04:55:19;8.90;;;3.75;;
27305;SDS011;14792;50.886;6.468;2023-07-31T04:58:20;9.70;;;3.90;;
27305;SDS011;14792;50.886;6.468;2023-07-31T05:01:22;8.28;;;4.00;;
27305;SDS011;14792;50.886;6.468;2023-07-31T05:04:23;10.88;;;4.50;;
27305;SDS011;14792;50.886;6.468;2023-07-31T05:07:26;7.05;;;4.50;;
27305;SDS011;14792;50.886;6.468;2023-07-31T05:10:28;9.18;;;4.22;;
27305;SDS011;14792;50.886;6.468;2023-07-31T05:13:29;7.03;;;4.12;;
27305;SDS011;14792;50.886;6.468;2023-07-31T05:16:31;8.05;;;4.08;;
27305;SDS011;14792;50.886;6.468;2023-07-31T05:19:32;7.17;;;3.87;;
27305;SDS011;14792;50.886;6.468;2023-07-31T05:22:34;10.72;;;4.08;;
27305;SDS011;14792;50.886;6.468;2023-07-31T05:25:36;9.83;;;4.08;;
27305;SDS011;14792;50.886;6.468;2023-07-31T05:28:37;7.22;;;3.90;;
27305;SDS011;14792;50.886;6.468;2023-07-31T05:31:41;9.10;;;4.15;;
27305;SDS011;14792;50.886;6.468;2023-07-31T05:34:43;8.35;;;4.10;;
27305;SDS011;14792;50.886;6.468;2023-07-31T05:37:45;8.18;;;3.95;;
27305;SDS011;14792;50.886;6.468;2023-07-31T05:40:47;9.35;;;4.60;;
27305;SDS011;14792;50.886;6.468;2023-07-31T05:43:48;8.80;;;4.28;;
27305;SDS011;14792;50.886;6.468;2023-07-31T05:46:50;6.75;;;3.72;;
27305;SDS011;14792;50.886;6.468;2023-07-31T05:49:51;11.35;;;4.50;;
27305;SDS011;14792;50.886;6.468;2023-07-31T05:52:53;12.88;;;4.28;;
27305;SDS011;14792;50.886;6.468;2023-07-31T05:55:55;9.08;;;4.15;;
27305;SDS011;14792;50.886;6.468;2023-07-31T05:58:56;9.15;;;4.50;;
27305;SDS011;14792;50.886;6.468;2023-07-31T06:01:58;10.50;;;3.70;;
27305;SDS011;14792;50.886;6.468;2023-07-31T06:04:59;9.20;;;4.08;;
27305;SDS011;14792;50.886;6.468;2023-07-31T06:08:01;13.13;;;4.50;;
27305;SDS011;14792;50.886;6.468;2023-07-31T06:11:02;11.30;;;4.47;;
27305;SDS011;14792;50.886;6.468;2023-07-31T06:14:04;9.65;;;4.17;;
27305;SDS011;14792;50.886;6.468;2023-07-31T06:17:06;10.03;;;4.55;;
27305;SDS011;14792;50.886;6.468;2023-07-31T06:20:08;11.75;;;4.33;;
27305;SDS011;14792;50.886;6.468;2023-07-31T06:23:12;8.15;;;4.47;;
27305;SDS011;14792;50.886;6.468;2023-07-31T06:26:15;10.65;;;4.72;;
27305;SDS011;14792;50.886;6.468;2023-07-31T06:29:16;13.15;;;4.62;;
27305;SDS011;14792;50.886;6.468;2023-07-31T06:32:18;10.85;;;4.37;;
27305;SDS011;14792;50.886;6.468;2023-07-31T06:35:19;10.60;;;4.50;;
27305;SDS011;14792;50.886;6.468;2023-07-31T06:38:24;10.25;;;3.98;;
27305;SDS011;14792;50.886;6.468;2023-07-31T06:41:27;10.45;;;4.10;;
27305;SDS011;14792;50.886;6.468;2023-07-31T06:44:29;9.08;;;4.40;;
27305;SDS011;14792;50.886;6.468;2023-07-31T06:47:30;8.83;;;3.95;;
27305;SDS011;14792;50.886;6.468;2023-07-31T06:50:32;11.03;;;4.25;;
27305;SDS011;14792;50.886;6.468;2023-07-31T06:53:33;11.55;;;4.17;;
27305;SDS011;14792;50.886;6.468;2023-07-31T06:56:35;11.30;;;4.12;;
27305;SDS011;14792;50.886;6.468;2023-07-31T06:59:36;9.33;;;3.67;;
27305;SDS011;14792;50.886;6.468;2023-07-31T07:05:44;7.15;;;3.58;;
27305;SDS011;14792;50.886;6.468;2023-07-31T07:08:45;7.97;;;3.62;;
27305;SDS011;14792;50.886;6.468;2023-07-31T07:11:47;9.00;;;3.98;;
27305;SDS011;14792;50.886;6.468;2023-07-31T07:14:48;12.98;;;4.28;;
27305;SDS011;14792;50.886;6.468;2023-07-31T07:17:50;9.38;;;3.90;;
27305;SDS011;14792;50.886;6.468;2023-07-31T07:20:52;9.08;;;3.60;;
27305;SDS011;14792;50.886;6.468;2023-07-31T07:23:53;6.53;;;3.17;;
27305;SDS011;14792;50.886;6.468;2023-07-31T07:26:55;8.03;;;3.58;;
27305;SDS011;14792;50.886;6.468;2023-07-31T07:29:56;10.08;;;3.52;;
27305;SDS011;14792;50.886;6.468;2023-07-31T07:32:58;7.72;;;3.77;;
27305;SDS011;14792;50.886;6.468;2023-07-31T07:36:04;9.25;;;3.77;;
27305;SDS011;14792;50.886;6.468;2023-07-31T07:39:06;9.75;;;3.70;;
27305;SDS011;14792;50.886;6.468;2023-07-31T07:42:07;8.65;;;3.67;;
27305;SDS011;14792;50.886;6.468;2023-07-31T07:45:13;7.72;;;3.40;;
27305;SDS011;14792;50.886;6.468;2023-07-31T07:48:15;7.65;;;3.22;;
27305;SDS011;14792;50.886;6.468;2023-07-31T07:51:16;7.75;;;3.50;;
27305;SDS011;14792;50.886;6.468;2023-07-31T07:54:18;7.65;;;3.20;;
27305;SDS011;14792;50.886;6.468;2023-07-31T07:57:19;11.22;;;3.72;;
27305;SDS011;14792;50.886;6.468;2023-07-31T08:00:21;14.83;;;3.70;;
27305;SDS011;14792;50.886;6.468;2023-07-31T08:03:23;10.05;;;3.72;;
27305;SDS011;14792;50.886;6.468;2023-07-31T08:06:24;9.75;;;3.60;;
27305;SDS011;14792;50.886;6.468;2023-07-31T08:09:26;7.55;;;3.45;;
27305;SDS011;14792;50.886;6.468;2023-07-31T08:12:27;5.33;;;3.20;;
27305;SDS011;14792;50.886;6.468;2023-07-31T08:15:29;7.33;;;3.42;;
27305;SDS011;14792;50.886;6.468;2023-07-31T08:18:31;6.37;;;3.52;;
27305;SDS011;14792;50.886;6.468;2023-07-31T08:21:32;6.87;;;3.30;;
27305;SDS011;14792;50.886;6.468;2023-07-31T08:24:34;10.32;;;3.65;;
27305;SDS011;14792;50.886;6.468;2023-07-31T08:27:35;9.13;;;3.80;;
27305;SDS011;14792;50.886;6.468;2023-07-31T08:30:37;6.72;;;3.10;;
27305;SDS011;14792;50.886;6.468;2023-07-31T08:33:41;4.85;;;2.65;;
27305;SDS011;14792;50.886;6.468;2023-07-31T08:36:43;8.70;;;3.45;;
27305;SDS011;14792;50.886;6.468;2023-07-31T08:39:45;6.53;;;2.67;;
27305;SDS011;14792;50.886;6.468;2023-07-31T08:42:48;7.28;;;3.30;;
27305;SDS011;14792;50.886;6.468;2023-07-31T08:45:49;8.13;;;3.35;;
27305;SDS011;14792;50.886;6.468;2023-07-31T08:48:50;9.40;;;2.98;;
27305;SDS011;14792;50.886;6.468;2023-07-31T08:51:52;7.83;;;3.55;;
27305;SDS011;14792;50.886;6.468;2023-07-31T08:54:54;11.73;;;2.80;;
27305;SDS011;14792;50.886;6.468;2023-07-31T08:57:55;6.25;;;3.08;;
27305;SDS011;14792;50.886;6.468;2023-07-31T09:00:57;10.18;;;3.02;;
27305;SDS011;14792;50.886;6.468;2023-07-31T09:03:59;6.58;;;3.22;;
27305;SDS011;14792;50.886;6.468;2023-07-31T09:07:01;7.83;;;3.47;;
27305;SDS011;14792;50.886;6.468;2023-07-31T09:10:02;6.78;;;2.95;;
27305;SDS011;14792;50.886;6.468;2023-07-31T09:13:03;11.40;;;3.10;;
27305;SDS011;14792;50.886;6.468;2023-07-31T09:16:05;9.63;;;3.22;;
27305;SDS011;14792;50.886;6.468;2023-07-31T09:19:06;8.00;;;3.22;;
27305;SDS011;14792;50.886;6.468;2023-07-31T09:22:08;11.97;;;3.72;;
27305;SDS011;14792;50.886;6.468;2023-07-31T09:25:23;5.40;;;3.02;;
27305;SDS011;14792;50.886;6.468;2023-07-31T09:28:30;8.38;;;3.58;;
27305;SDS011;14792;50.886;6.468;2023-07-31T09:31:39;8.55;;;3.35;;
27305;SDS011;14792;50.886;6.468;2023-07-31T09:34:42;6.55;;;3.30;;
27305;SDS011;14792;50.886;6.468;2023-07-31T09:37:45;7.20;;;2.75;;
27305;SDS011;14792;50.886;6.468;2023-07-31T09:40:47;8.58;;;3.05;;
27305;SDS011;14792;50.886;6.468;2023-07-31T09:43:54;9.50;;;3.62;;
27305;SDS011;14792;50.886;6.468;2023-07-31T09:46:55;6.80;;;2.90;;
27305;SDS011;14792;50.886;6.468;2023-07-31T09:49:57;6.12;;;3.00;;
27305;SDS011;14792;50.886;6.468;2023-07-31T09:52:59;6.42;;;2.90;;
27305;SDS011;14792;50.886;6.468;2023-07-31T09:56:00;9.50;;;3.50;;
27305;SDS011;14792;50.886;6.468;2023-07-31T09:59:02;6.35;;;2.80;;
27305;SDS011;14792;50.886;6.468;2023-07-31T10:02:04;6.15;;;2.95;;
27305;SDS011;14792;50.886;6.468;2023-07-31T10:05:06;6.08;;;2.65;;
27305;SDS011;14792;50.886;6.468;2023-07-31T10:08:07;3.90;;;2.30;;
27305;SDS011;14792;50.886;6.468;2023-07-31T10:11:12;5.62;;;2.60;;
27305;SDS011;14792;50.886;6.468;2023-07-31T10:14:14;5.72;;;2.50;;
27305;SDS011;14792;50.886;6.468;2023-07-31T10:17:16;3.75;;;2.20;;
27305;SDS011;14792;50.886;6.468;2023-07-31T10:20:19;3.10;;;2.00;;
27305;SDS011;14792;50.886;6.468;2023-07-31T10:23:21;5.58;;;1.95;;
27305;SDS011;14792;50.886;6.468;2023-07-31T10:26:22;2.70;;;1.72;;
27305;SDS011;14792;50.886;6.468;2023-07-31T10:29:24;5.70;;;2.35;;
27305;SDS011;14792;50.886;6.468;2023-07-31T10:32:25;4.58;;;1.92;;
27305;SDS011;14792;50.886;6.468;2023-07-31T10:35:27;8.03;;;2.10;;
27305;SDS011;14792;50.886;6.468;2023-07-31T10:38:29;2.22;;;1.60;;
27305;SDS011;14792;50.886;6.468;2023-07-31T10:41:30;1.87;;;1.40;;
27305;SDS011;14792;50.886;6.468;2023-07-31T10:44:32;2.42;;;1.42;;
27305;SDS011;14792;50.886;6.468;2023-07-31T10:47:37;2.42;;;1.30;;
27305;SDS011;14792;50.886;6.468;2023-07-31T10:50:38;3.00;;;1.55;;
27305;SDS011;14792;50.886;6.468;2023-07-31T10:53:42;4.50;;;1.70;;
27305;SDS011;14792;50.886;6.468;2023-07-31T10:56:47;2.70;;;1.40;;
27305;SDS011;14792;50.886;6.468;2023-07-31T10:59:49;3.35;;;1.30;;
27305;SDS011;14792;50.886;6.468;2023-07-31T11:02:57;2.08;;;1.25;;
27305;SDS011;14792;50.886;6.468;2023-07-31T11:06:03;1.92;;;1.20;;
27305;SDS011;14792;50.886;6.468;2023-07-31T11:09:02;2.15;;;1.10;;
27305;SDS011;14792;50.886;6.468;2023-07-31T11:12:03;1.60;;;1.25;;
27305;SDS011;14792;50.886;6.468;2023-07-31T11:15:05;1.42;;;0.90;;
27305;SDS011;14792;50.886;6.468;2023-07-31T11:18:07;1.57;;;1.07;;
27305;SDS011;14792;50.886;6.468;2023-07-31T11:21:12;1.25;;;0.80;;
27305;SDS011;14792;50.886;6.468;2023-07-31T11:24:16;1.92;;;0.95;;
27305;SDS011;14792;50.886;6.468;2023-07-31T11:27:18;1.62;;;1.00;;
27305;SDS011;14792;50.886;6.468;2023-07-31T11:30:19;2.30;;;1.17;;
27305;SDS011;14792;50.886;6.468;2023-07-31T11:33:21;1.32;;;1.00;;
27305;SDS011;14792;50.886;6.468;2023-07-31T11:36:22;2.95;;;1.37;;
27305;SDS011;14792;50.886;6.468;2023-07-31T11:39:24;3.12;;;1.32;;
27305;SDS011;14792;50.886;6.468;2023-07-31T11:42:26;3.22;;;1.65;;
27305;SDS011;14792;50.886;6.468;2023-07-31T11:45:27;2.22;;;1.47;;
27305;SDS011;14792;50.886;6.468;2023-07-31T11:48:30;4.42;;;1.60;;
27305;SDS011;14792;50.886;6.468;2023-07-31T11:51:30;2.83;;;1.57;;
27305;SDS011;14792;50.886;6.468;2023-07-31T11:54:32;2.75;;;1.77;;
27305;SDS011;14792;50.886;6.468;2023-07-31T11:57:33;3.87;;;2.10;;
27305;SDS011;14792;50.886;6.468;2023-07-31T12:00:35;3.62;;;2.33;;
27305;SDS011;14792;50.886;6.468;2023-07-31T12:03:37;2.77;;;2.08;;
27305;SDS011;14792;50.886;6.468;2023-07-31T12:06:38;4.03;;;2.30;;
27305;SDS011;14792;50.886;6.468;2023-07-31T12:09:53;5.70;;;2.35;;
27305;SDS011;14792;50.886;6.468;2023-07-31T12:12:58;4.10;;;2.33;;
27305;SDS011;14792;50.886;6.468;2023-07-31T12:16:02;4.25;;;2.37;;
27305;SDS011;14792;50.886;6.468;2023-07-31T12:19:03;4.08;;;2.27;;
27305;SDS011;14792;50.886;6.468;2023-07-31T12:22:14;5.83;;;2.72;;
27305;SDS011;14792;50.886;6.468;2023-07-31T12:25:15;4.03;;;2.55;;
27305;SDS011;14792;50.886;6.468;2023-07-31T12:28:17;3.83;;;2.85;;
27305;SDS011;14792;50.886;6.468;2023-07-31T12:31:19;6.22;;;3.00;;
27305;SDS011;14792;50.886;6.468;2023-07-31T12:34:20;6.12;;;3.02;;
27305;SDS011;14792;50.886;6.468;2023-07-31T12:37:21;6.70;;;2.45;;
27305;SDS011;14792;50.886;6.468;2023-07-31T12:40:23;4.20;;;2.80;;
27305;SDS011;14792;50.886;6.468;2023-07-31T12:43:25;5.05;;;2.50;;
27305;SDS011;14792;50.886;6.468;2023-07-31T12:46:26;3.75;;;2.60;;
27305;SDS011;14792;50.886;6.468;2023-07-31T12:49:28;5.25;;;2.75;;
27305;SDS011;14792;50.886;6.468;2023-07-31T12:52:29;6.33;;;2.75;;
27305;SDS011;14792;50.886;6.468;2023-07-31T12:55:31;5.10;;;2.65;;
27305;SDS011;14792;50.886;6.468;2023-07-31T12:58:32;4.28;;;2.37;;
27305;SDS011;14792;50.886;6.468;2023-07-31T13:01:34;4.60;;;2.45;;
27305;SDS011;14792;50.886;6.468;2023-07-31T13:04:42;5.75;;;2.75;;
27305;SDS011;14792;50.886;6.468;2023-07-31T13:07:44;5.10;;;2.83;;
27305;SDS011;14792;50.886;6.468;2023-07-31T13:10:46;3.37;;;2.30;;
27305;SDS011;14792;50.886;6.468;2023-07-31T13:13:47;4.53;;;2.75;;
27305;SDS011;14792;50.886;6.468;2023-07-31T13:16:49;3.92;;;2.10;;
27305;SDS011;14792;50.886;6.468;2023-07-31T13:19:50;5.53;;;2.33;;
27305;SDS011;14792;50.886;6.468;2023-07-31T13:22:52;3.80;;;2.40;;
27305;SDS011;14792;50.886;6.468;2023-07-31T13:25:54;4.00;;;2.47;;
27305;SDS011;14792;50.886;6.468;2023-07-31T13:28:55;3.47;;;2.22;;
27305;SDS011;14792;50.886;6.468;2023-07-31T13:31:57;3.20;;;2.10;;
27305;SDS011;14792;50.886;6.468;2023-07-31T13:34:58;3.60;;;2.50;;
27305;SDS011;14792;50.886;6.468;2023-07-31T13:38:00;3.25;;;2.27;;
27305;SDS011;14792;50.886;6.468;2023-07-31T13:41:01;3.90;;;2.50;;
27305;SDS011;14792;50.886;6.468;2023-07-31T13:44:03;3.10;;;2.30;;
27305;SDS011;14792;50.886;6.468;2023-07-31T13:47:05;3.15;;;2.15;;
27305;SDS011;14792;50.886;6.468;2023-07-31T13:50:06;3.95;;;2.35;;
27305;SDS011;14792;50.886;6.468;2023-07-31T13:53:08;5.10;;;2.77;;
27305;SDS011;14792;50.886;6.468;2023-07-31T13:56:13;4.97;;;3.00;;
27305;SDS011;14792;50.886;6.468;2023-07-31T13:59:14;5.37;;;2.95;;
27305;SDS011;14792;50.886;6.468;2023-07-31T14:02:16;3.95;;;3.10;;
27305;SDS011;14792;50.886;6.468;2023-07-31T14:05:18;4.80;;;3.25;;
27305;SDS011;14792;50.886;6.468;2023-07-31T14:08:19;5.17;;;3.35;;
27305;SDS011;14792;50.886;6.468;2023-07-31T14:11:21;5.83;;;3.75;;
27305;SDS011;14792;50.886;6.468;2023-07-31T14:14:22;5.50;;;3.45;;
27305;SDS011;14792;50.886;6.468;2023-07-31T14:17:24;5.00;;;3.50;;
27305;SDS011;14792;50.886;6.468;2023-07-31T14:20:25;6.33;;;3.42;;
27305;SDS011;14792;50.886;6.468;2023-07-31T14:23:27;4.97;;;3.75;;
27305;SDS011;14792;50.886;6.468;2023-07-31T14:26:29;8.33;;;3.65;;
27305;SDS011;14792;50.886;6.468;2023-07-31T14:29:30;5.72;;;3.20;;
27305;SDS011;14792;50.886;6.468;2023-07-31T14:32:32;3.80;;;3.17;;
27305;SDS011;14792;50.886;6.468;2023-07-31T14:35:34;5.60;;;3.62;;
27305;SDS011;14792;50.886;6.468;2023-07-31T14:38:35;5.90;;;3.27;;
27305;SDS011;14792;50.886;6.468;2023-07-31T14:41:37;6.53;;;3.40;;
27305;SDS011;14792;50.886;6.468;2023-07-31T14:44:38;5.33;;;3.42;;
27305;SDS011;14792;50.886;6.468;2023-07-31T14:47:44;6.62;;;3.77;;
27305;SDS011;14792;50.886;6.468;2023-07-31T14:50:45;5.62;;;3.55;;
27305;SDS011;14792;50.886;6.468;2023-07-31T14:53:50;6.05;;;3.25;;
27305;SDS011;14792;50.886;6.468;2023-07-31T14:56:49;3.92;;;3.10;;
27305;SDS011;14792;50.886;6.468;2023-07-31T14:59:50;6.15;;;3.95;;
27305;SDS011;14792;50.886;6.468;2023-07-31T15:02:52;5.00;;;3.87;;
27305;SDS011;14792;50.886;6.468;2023-07-31T15:05:53;6.47;;;4.47;;
27305;SDS011;14792;50.886;6.468;2023-07-31T15:08:55;8.75;;;4.33;;
27305;SDS011;14792;50.886;6.468;2023-07-31T15:11:57;6.92;;;4.50;;
27305;SDS011;14792;50.886;6.468;2023-07-31T15:14:58;6.37;;;4.35;;
27305;SDS011;14792;50.886;6.468;2023-07-31T15:18:00;5.33;;;4.35;;
27305;SDS011;14792;50.886;6.468;2023-07-31T15:21:01;6.28;;;4.10;;
27305;SDS011;14792;50.886;6.468;2023-07-31T15:24:03;5.37;;;3.55;;
27305;SDS011;14792;50.886;6.468;2023-07-31T15:27:05;5.90;;;4.22;;
27305;SDS011;14792;50.886;6.468;2023-07-31T15:30:06;6.70;;;3.85;;
27305;SDS011;14792;50.886;6.468;2023-07-31T15:33:08;7.75;;;4.28;;
27305;SDS011;14792;50.886;6.468;2023-07-31T15:36:13;10.13;;;3.90;;
27305;SDS011;14792;50.886;6.468;2023-07-31T15:39:15;10.30;;;4.70;;
27305;SDS011;14792;50.886;6.468;2023-07-31T15:42:16;6.05;;;3.62;;
27305;SDS011;14792;50.886;6.468;2023-07-31T15:45:18;5.87;;;3.80;;
27305;SDS011;14792;50.886;6.468;2023-07-31T15:48:20;5.30;;;3.08;;
27305;SDS011;14792;50.886;6.468;2023-07-31T15:51:22;3.33;;;2.72;;
27305;SDS011;14792;50.886;6.468;2023-07-31T15:54:23;3.92;;;2.90;;
27305;SDS011;14792;50.886;6.468;2023-07-31T15:57:24;4.62;;;2.45;;
27305;SDS011;14792;50.886;6.468;2023-07-31T16:00:26;6.30;;;2.60;;
27305;SDS011;14792;50.886;6.468;2023-07-31T16:03:28;4.72;;;2.52;;
27305;SDS011;14792;50.886;6.468;2023-07-31T16:06:29;4.30;;;2.25;;
27305;SDS011;14792;50.886;6.468;2023-07-31T16:09:31;4.45;;;2.15;;
27305;SDS011;14792;50.886;6.468;2023-07-31T16:12:32;3.95;;;2.22;;
27305;SDS011;14792;50.886;6.468;2023-07-31T16:15:34;3.92;;;2.58;;
27305;SDS011;14792;50.886;6.468;2023-07-31T16:18:35;3.35;;;2.25;;
27305;SDS011;14792;50.886;6.468;2023-07-31T16:21:37;5.20;;;2.27;;
27305;SDS011;14792;50.886;6.468;2023-07-31T16:24:39;3.67;;;2.17;;
27305;SDS011;14792;50.886;6.468;2023-07-31T16:27:44;4.33;;;2.12;;
27305;SDS011;14792;50.886;6.468;2023-07-31T16:30:45;2.55;;;2.02;;
27305;SDS011;14792;50.886;6.468;2023-07-31T16:33:47;3.15;;;2.10;;
27305;SDS011;14792;50.886;6.468;2023-07-31T16:36:49;3.27;;;1.77;;
27305;SDS011;14792;50.886;6.468;2023-07-31T16:39:51;3.60;;;1.75;;
27305;SDS011;14792;50.886;6.468;2023-07-31T16:42:53;3.33;;;1.92;;
27305;SDS011;14792;50.886;6.468;2023-07-31T16:45:55;3.80;;;1.90;;
27305;SDS011;14792;50.886;6.468;2023-07-31T16:48:57;4.33;;;1.90;;
27305;SDS011;14792;50.886;6.468;2023-07-31T16:51:59;3.25;;;1.75;;
27305;SDS011;14792;50.886;6.468;2023-07-31T16:55:01;3.50;;;1.70;;
27305;SDS011;14792;50.886;6.468;2023-07-31T16:58:03;2.92;;;1.32;;
27305;SDS011;14792;50.886;6.468;2023-07-31T17:01:05;2.35;;;1.60;;
27305;SDS011;14792;50.886;6.468;2023-07-31T17:04:06;4.12;;;1.70;;
27305;SDS011;14792;50.886;6.468;2023-07-31T17:07:08;2.15;;;1.47;;
27305;SDS011;14792;50.886;6.468;2023-07-31T17:10:12;3.22;;;1.87;;
27305;SDS011;14792;50.886;6.468;2023-07-31T17:13:13;2.90;;;1.70;;
27305;SDS011;14792;50.886;6.468;2023-07-31T17:16:15;2.75;;;1.72;;
27305;SDS011;14792;50.886;6.468;2023-07-31T17:19:17;3.02;;;1.70;;
27305;SDS011;14792;50.886;6.468;2023-07-31T17:22:18;3.37;;;1.85;;
27305;SDS011;14792;50.886;6.468;2023-07-31T17:25:20;3.00;;;1.82;;
27305;SDS011;14792;50.886;6.468;2023-07-31T17:28:21;2.02;;;1.67;;
27305;SDS011;14792;50.886;6.468;2023-07-31T17:31:23;2.52;;;1.70;;
27305;SDS011;14792;50.886;6.468;2023-07-31T17:34:25;4.00;;;1.50;;
27305;SDS011;14792;50.886;6.468;2023-07-31T17:37:26;2.52;;;1.60;;
27305;SDS011;14792;50.886;6.468;2023-07-31T17:40:28;1.87;;;1.40;;
27305;SDS011;14792;50.886;6.468;2023-07-31T17:43:29;1.82;;;1.27;;
27305;SDS011;14792;50.886;6.468;2023-07-31T17:46:31;1.00;;;0.90;;
27305;SDS011;14792;50.886;6.468;2023-07-31T17:49:33;1.20;;;1.07;;
27305;SDS011;14792;50.886;6.468;2023-07-31T17:52:34;1.10;;;1.00;;
27305;SDS011;14792;50.886;6.468;2023-07-31T17:55:36;1.12;;;0.88;;
27305;SDS011;14792;50.886;6.468;2023-07-31T17:58:38;1.42;;;0.90;;
27305;SDS011;14792;50.886;6.468;2023-07-31T18:01:44;1.22;;;1.10;;
27305;SDS011;14792;50.886;6.468;2023-07-31T18:04:45;2.70;;;1.22;;
27305;SDS011;14792;50.886;6.468;2023-07-31T18:07:47;1.25;;;1.15;;
27305;SDS011;14792;50.886;6.468;2023-07-31T18:10:49;1.07;;;0.60;;
27305;SDS011;14792;50.886;6.468;2023-07-31T18:13:50;0.60;;;0.60;;
27305;SDS011;14792;50.886;6.468;2023-07-31T18:16:52;1.25;;;0.90;;
27305;SDS011;14792;50.886;6.468;2023-07-31T18:19:53;1.00;;;0.85;;
27305;SDS011;14792;50.886;6.468;2023-07-31T18:22:55;1.22;;;0.78;;